sensor_id;sensor_type;location;lat;lon;timestamp;temperature;humidity
29363;DHT22;16349;53.672;10.014;2023-02-18T00:01:10;7.10;99.90
29363;DHT22;16349;53.672;10.014;2023-02-18T00:03:38;7.10;99.90
29363;DHT22;16349;53.672;10.014;2023-02-18T00:06:13;7.10;99.90
29363;DHT22;16349;53.672;10.014;2023-02-18T00:08:42;7.10;99.90
29363;DHT22;16349;53.672;10.014;2023-02-18T00:11:10;7.20;99.90
29363;DHT22;16349;53.672;10.014;2023-02-18T00:13:38;7.20;99.90
29363;DHT22;16349;53.672;10.014;2023-02-18T00:16:06;7.20;99.90
29363;DHT22;16349;53.672;10.014;2023-02-18T00:18:34;7.20;99.90
29363;DHT22;16349;53.672;10.014;2023-02-18T00:21:02;7.20;99.90
29363;DHT22;16349;53.672;10.014;2023-02-18T00:23:30;7.20;99.90
29363;DHT22;16349;53.672;10.014;2023-02-18T00:25:58;7.20;99.90
29363;DHT22;16349;53.672;10.014;2023-02-18T00:28:26;7.20;99.90
29363;DHT22;16349;53.672;10.014;2023-02-18T00:30:53;7.20;99.90
29363;DHT22;16349;53.672;10.014;2023-02-18T00:33:20;7.20;99.90
29363;DHT22;16349;53.672;10.014;2023-02-18T00:35:47;7.10;99.90
29363;DHT22;16349;53.672;10.014;2023-02-18T00:38:14;7.10;99.90
29363;DHT22;16349;53.672;10.014;2023-02-18T00:40:41;7.10;99.90
29363;DHT22;16349;53.672;10.014;2023-02-18T00:43:08;7.10;99.90
29363;DHT22;16349;53.672;10.014;2023-02-18T00:45:36;7.10;99.90
29363;DHT22;16349;53.672;10.014;2023-02-18T00:48:04;7.10;99.90
29363;DHT22;16349;53.672;10.014;2023-02-18T00:50:31;7.00;99.90
29363;DHT22;16349;53.672;10.014;2023-02-18T00:52:57;7.00;99.90
29363;DHT22;16349;53.672;10.014;2023-02-18T00:55:24;6.90;99.90
29363;DHT22;16349;53.672;10.014;2023-02-18T00:57:51;6.90;99.90
29363;DHT22;16349;53.672;10.014;2023-02-18T01:00:18;6.90;99.90
29363;DHT22;16349;53.672;10.014;2023-02-18T01:02:46;7.00;99.90
29363;DHT22;16349;53.672;10.014;2023-02-18T01:05:13;6.90;99.90
29363;DHT22;16349;53.672;10.014;2023-02-18T01:07:39;6.90;99.90
29363;DHT22;16349;53.672;10.014;2023-02-18T01:10:07;6.90;99.90
29363;DHT22;16349;53.672;10.014;2023-02-18T01:12:34;6.90;99.90
29363;DHT22;16349;53.672;10.014;2023-02-18T01:15:00;6.90;99.90
29363;DHT22;16349;53.672;10.014;2023-02-18T01:17:27;6.90;99.90
29363;DHT22;16349;53.672;10.014;2023-02-18T01:19:55;6.90;99.90
29363;DHT22;16349;53.672;10.014;2023-02-18T01:22:22;6.90;99.90
29363;DHT22;16349;53.672;10.014;2023-02-18T01:24:49;6.90;99.90
29363;DHT22;16349;53.672;10.014;2023-02-18T01:27:17;6.90;99.90
29363;DHT22;16349;53.672;10.014;2023-02-18T01:29:44;6.90;99.90
29363;DHT22;16349;53.672;10.014;2023-02-18T01:32:11;6.80;99.90
29363;DHT22;16349;53.672;10.014;2023-02-18T01:34:39;6.80;99.90
29363;DHT22;16349;53.672;10.014;2023-02-18T01:37:08;6.80;99.90
29363;DHT22;16349;53.672;10.014;2023-02-18T01:39:34;6.80;99.90
29363;DHT22;16349;53.672;10.014;2023-02-18T01:42:02;6.70;99.90
29363;DHT22;16349;53.672;10.014;2023-02-18T01:44:29;6.70;99.90
29363;DHT22;16349;53.672;10.014;2023-02-18T01:46:56;6.70;99.90
29363;DHT22;16349;53.672;10.014;2023-02-18T01:49:26;6.60;99.90
29363;DHT22;16349;53.672;10.014;2023-02-18T01:51:56;6.60;99.90
29363;DHT22;16349;53.672;10.014;2023-02-18T01:54:29;6.60;99.90
29363;DHT22;16349;53.672;10.014;2023-02-18T01:57:02;6.60;99.90
29363;DHT22;16349;53.672;10.014;2023-02-18T01:59:32;6.60;99.90
29363;DHT22;16349;53.672;10.014;2023-02-18T02:02:00;6.50;99.90
29363;DHT22;16349;53.672;10.014;2023-02-18T02:04:29;6.50;99.90
29363;DHT22;16349;53.672;10.014;2023-02-18T02:06:56;6.50;99.90
29363;DHT22;16349;53.672;10.014;2023-02-18T02:09:24;6.60;99.90
29363;DHT22;16349;53.672;10.014;2023-02-18T02:12:31;6.50;99.90
29363;DHT22;16349;53.672;10.014;2023-02-18T02:15:18;6.60;99.90
29363;DHT22;16349;53.672;10.014;2023-02-18T02:17:57;6.50;99.90
29363;DHT22;16349;53.672;10.014;2023-02-18T02:20:56;6.50;99.90
29363;DHT22;16349;53.672;10.014;2023-02-18T02:23:40;6.50;99.90
29363;DHT22;16349;53.672;10.014;2023-02-18T02:26:40;6.50;99.90
29363;DHT22;16349;53.672;10.014;2023-02-18T02:32:36;6.50;99.90
29363;DHT22;16349;53.672;10.014;2023-02-18T02:35:08;6.50;99.90
29363;DHT22;16349;53.672;10.014;2023-02-18T02:37:42;6.50;99.90
29363;DHT22;16349;53.672;10.014;2023-02-18T02:40:19;6.50;99.90
29363;DHT22;16349;53.672;10.014;2023-02-18T02:42:58;6.50;99.90
29363;DHT22;16349;53.672;10.014;2023-02-18T02:45:37;6.50;99.90
29363;DHT22;16349;53.672;10.014;2023-02-18T02:48:14;6.40;99.90
29363;DHT22;16349;53.672;10.014;2023-02-18T02:50:45;6.40;99.90
29363;DHT22;16349;53.672;10.014;2023-02-18T02:53:15;6.40;99.90
29363;DHT22;16349;53.672;10.014;2023-02-18T02:55:45;6.50;99.90
29363;DHT22;16349;53.672;10.014;2023-02-18T02:58:14;6.50;99.90
29363;DHT22;16349;53.672;10.014;2023-02-18T03:00:55;6.50;99.90
29363;DHT22;16349;53.672;10.014;2023-02-18T03:07:05;6.50;99.90
29363;DHT22;16349;53.672;10.014;2023-02-18T03:09:42;6.50;99.90
29363;DHT22;16349;53.672;10.014;2023-02-18T03:12:20;6.50;99.90
29363;DHT22;16349;53.672;10.014;2023-02-18T03:14:54;6.50;99.90
29363;DHT22;16349;53.672;10.014;2023-02-18T03:17:25;6.50;99.90
29363;DHT22;16349;53.672;10.014;2023-02-18T03:19:57;6.50;99.90
29363;DHT22;16349;53.672;10.014;2023-02-18T03:22:32;6.50;99.90
29363;DHT22;16349;53.672;10.014;2023-02-18T03:25:23;6.60;99.90
29363;DHT22;16349;53.672;10.014;2023-02-18T03:27:52;6.60;99.90
29363;DHT22;16349;53.672;10.014;2023-02-18T03:30:27;6.60;99.90
29363;DHT22;16349;53.672;10.014;2023-02-18T03:32:57;6.60;99.90
29363;DHT22;16349;53.672;10.014;2023-02-18T03:35:26;6.60;99.90
29363;DHT22;16349;53.672;10.014;2023-02-18T03:37:59;6.70;99.90
29363;DHT22;16349;53.672;10.014;2023-02-18T03:40:30;6.70;99.90
29363;DHT22;16349;53.672;10.014;2023-02-18T03:42:59;6.80;99.90
29363;DHT22;16349;53.672;10.014;2023-02-18T03:45:27;6.90;99.90
29363;DHT22;16349;53.672;10.014;2023-02-18T03:47:53;6.90;99.90
29363;DHT22;16349;53.672;10.014;2023-02-18T03:50:23;6.90;99.90
29363;DHT22;16349;53.672;10.014;2023-02-18T03:52:50;6.90;99.90
29363;DHT22;16349;53.672;10.014;2023-02-18T03:55:18;6.90;99.90
29363;DHT22;16349;53.672;10.014;2023-02-18T03:57:45;6.90;99.90
29363;DHT22;16349;53.672;10.014;2023-02-18T04:00:12;7.00;99.90
29363;DHT22;16349;53.672;10.014;2023-02-18T04:02:40;6.90;99.90
29363;DHT22;16349;53.672;10.014;2023-02-18T04:05:07;6.90;99.90
29363;DHT22;16349;53.672;10.014;2023-02-18T04:07:34;7.00;99.90
29363;DHT22;16349;53.672;10.014;2023-02-18T04:10:01;7.00;99.90
29363;DHT22;16349;53.672;10.014;2023-02-18T04:12:29;6.90;99.90
29363;DHT22;16349;53.672;10.014;2023-02-18T04:14:56;7.00;99.90
29363;DHT22;16349;53.672;10.014;2023-02-18T04:17:23;6.90;99.90
29363;DHT22;16349;53.672;10.014;2023-02-18T04:19:49;6.90;99.90
29363;DHT22;16349;53.672;10.014;2023-02-18T04:22:16;6.90;99.90
29363;DHT22;16349;53.672;10.014;2023-02-18T04:24:43;6.80;99.90
29363;DHT22;16349;53.672;10.014;2023-02-18T04:27:09;6.80;99.90
29363;DHT22;16349;53.672;10.014;2023-02-18T04:29:38;6.80;99.90
29363;DHT22;16349;53.672;10.014;2023-02-18T04:32:05;6.80;99.90
29363;DHT22;16349;53.672;10.014;2023-02-18T04:34:31;6.70;99.90
29363;DHT22;16349;53.672;10.014;2023-02-18T04:37:21;6.70;99.90
29363;DHT22;16349;53.672;10.014;2023-02-18T04:39:47;6.60;99.90
29363;DHT22;16349;53.672;10.014;2023-02-18T04:42:15;6.60;99.90
29363;DHT22;16349;53.672;10.014;2023-02-18T04:44:43;6.60;99.90
29363;DHT22;16349;53.672;10.014;2023-02-18T04:47:10;6.60;99.90
29363;DHT22;16349;53.672;10.014;2023-02-18T04:49:37;6.50;99.90
29363;DHT22;16349;53.672;10.014;2023-02-18T04:52:04;6.50;99.90
29363;DHT22;16349;53.672;10.014;2023-02-18T04:54:31;6.50;99.90
29363;DHT22;16349;53.672;10.014;2023-02-18T04:56:58;6.50;99.90
29363;DHT22;16349;53.672;10.014;2023-02-18T04:59:24;6.50;99.90
29363;DHT22;16349;53.672;10.014;2023-02-18T05:01:52;6.50;99.90
29363;DHT22;16349;53.672;10.014;2023-02-18T05:04:19;6.50;99.90
29363;DHT22;16349;53.672;10.014;2023-02-18T05:06:46;6.50;99.90
29363;DHT22;16349;53.672;10.014;2023-02-18T05:09:13;6.50;99.90
29363;DHT22;16349;53.672;10.014;2023-02-18T05:12:01;6.50;99.90
29363;DHT22;16349;53.672;10.014;2023-02-18T05:14:28;6.50;99.90
29363;DHT22;16349;53.672;10.014;2023-02-18T05:16:56;6.50;99.90
29363;DHT22;16349;53.672;10.014;2023-02-18T05:19:22;6.40;99.90
29363;DHT22;16349;53.672;10.014;2023-02-18T05:21:49;6.40;99.90
29363;DHT22;16349;53.672;10.014;2023-02-18T05:24:16;6.40;99.90
29363;DHT22;16349;53.672;10.014;2023-02-18T05:26:43;6.40;99.90
29363;DHT22;16349;53.672;10.014;2023-02-18T05:29:10;6.40;99.90
29363;DHT22;16349;53.672;10.014;2023-02-18T05:31:37;6.40;99.90
29363;DHT22;16349;53.672;10.014;2023-02-18T05:34:06;6.30;99.90
29363;DHT22;16349;53.672;10.014;2023-02-18T05:36:32;6.30;99.90
29363;DHT22;16349;53.672;10.014;2023-02-18T05:38:59;6.30;99.90
29363;DHT22;16349;53.672;10.014;2023-02-18T05:41:26;6.30;99.90
29363;DHT22;16349;53.672;10.014;2023-02-18T05:43:52;6.30;99.90
29363;DHT22;16349;53.672;10.014;2023-02-18T05:46:37;6.30;99.90
29363;DHT22;16349;53.672;10.014;2023-02-18T05:49:05;6.30;99.90
29363;DHT22;16349;53.672;10.014;2023-02-18T05:51:32;6.30;99.90
29363;DHT22;16349;53.672;10.014;2023-02-18T05:53:59;6.20;99.90
29363;DHT22;16349;53.672;10.014;2023-02-18T05:56:26;6.20;99.90
29363;DHT22;16349;53.672;10.014;2023-02-18T05:58:53;6.20;99.90
29363;DHT22;16349;53.672;10.014;2023-02-18T06:01:19;6.20;99.90
29363;DHT22;16349;53.672;10.014;2023-02-18T06:03:46;6.20;99.90
29363;DHT22;16349;53.672;10.014;2023-02-18T06:06:14;6.20;99.90
29363;DHT22;16349;53.672;10.014;2023-02-18T06:08:41;6.20;99.90
29363;DHT22;16349;53.672;10.014;2023-02-18T06:11:08;6.20;99.90
29363;DHT22;16349;53.672;10.014;2023-02-18T06:13:35;6.10;99.90
29363;DHT22;16349;53.672;10.014;2023-02-18T06:16:02;6.10;99.90
29363;DHT22;16349;53.672;10.014;2023-02-18T06:18:29;6.10;99.90
29363;DHT22;16349;53.672;10.014;2023-02-18T06:20:56;6.10;99.90
29363;DHT22;16349;53.672;10.014;2023-02-18T06:23:24;6.10;99.90
29363;DHT22;16349;53.672;10.014;2023-02-18T06:26:13;6.10;99.90
29363;DHT22;16349;53.672;10.014;2023-02-18T06:28:40;6.00;99.90
29363;DHT22;16349;53.672;10.014;2023-02-18T06:31:07;6.00;99.90
29363;DHT22;16349;53.672;10.014;2023-02-18T06:33:34;6.00;99.90
29363;DHT22;16349;53.672;10.014;2023-02-18T06:36:04;6.00;99.90
29363;DHT22;16349;53.672;10.014;2023-02-18T06:38:34;6.00;99.90
29363;DHT22;16349;53.672;10.014;2023-02-18T06:41:01;6.00;99.90
29363;DHT22;16349;53.672;10.014;2023-02-18T06:43:28;6.00;99.90
29363;DHT22;16349;53.672;10.014;2023-02-18T06:45:54;6.00;99.90
29363;DHT22;16349;53.672;10.014;2023-02-18T06:48:21;6.00;99.90
29363;DHT22;16349;53.672;10.014;2023-02-18T06:50:48;5.90;99.90
29363;DHT22;16349;53.672;10.014;2023-02-18T06:53:15;5.90;99.90
29363;DHT22;16349;53.672;10.014;2023-02-18T06:55:44;5.90;99.90
29363;DHT22;16349;53.672;10.014;2023-02-18T06:58:11;5.90;99.90
29363;DHT22;16349;53.672;10.014;2023-02-18T07:00:38;5.90;99.90
29363;DHT22;16349;53.672;10.014;2023-02-18T07:03:05;5.90;99.90
29363;DHT22;16349;53.672;10.014;2023-02-18T07:05:33;5.90;99.90
29363;DHT22;16349;53.672;10.014;2023-02-18T07:08:00;6.00;99.90
29363;DHT22;16349;53.672;10.014;2023-02-18T07:10:27;6.00;99.90
29363;DHT22;16349;53.672;10.014;2023-02-18T07:12:55;6.00;99.90
29363;DHT22;16349;53.672;10.014;2023-02-18T07:15:44;6.00;99.90
29363;DHT22;16349;53.672;10.014;2023-02-18T07:18:11;6.00;99.90
29363;DHT22;16349;53.672;10.014;2023-02-18T07:20:38;6.00;99.90
29363;DHT22;16349;53.672;10.014;2023-02-18T07:23:05;6.00;99.90
29363;DHT22;16349;53.672;10.014;2023-02-18T07:25:32;6.00;99.90
29363;DHT22;16349;53.672;10.014;2023-02-18T07:28:00;6.00;99.90
29363;DHT22;16349;53.672;10.014;2023-02-18T07:30:27;6.00;99.90
29363;DHT22;16349;53.672;10.014;2023-02-18T07:32:54;6.00;99.90
29363;DHT22;16349;53.672;10.014;2023-02-18T07:35:42;6.00;99.90
29363;DHT22;16349;53.672;10.014;2023-02-18T07:38:09;6.00;99.90
29363;DHT22;16349;53.672;10.014;2023-02-18T07:40:36;6.00;99.90
29363;DHT22;16349;53.672;10.014;2023-02-18T07:43:04;6.10;99.90
29363;DHT22;16349;53.672;10.014;2023-02-18T07:45:31;6.00;99.90
29363;DHT22;16349;53.672;10.014;2023-02-18T07:48:19;6.00;99.90
29363;DHT22;16349;53.672;10.014;2023-02-18T07:50:46;6.00;99.90
29363;DHT22;16349;53.672;10.014;2023-02-18T07:53:14;6.00;99.90
29363;DHT22;16349;53.672;10.014;2023-02-18T07:55:41;6.10;99.90
29363;DHT22;16349;53.672;10.014;2023-02-18T07:58:22;6.10;99.90
29363;DHT22;16349;53.672;10.014;2023-02-18T08:00:50;6.10;99.90
29363;DHT22;16349;53.672;10.014;2023-02-18T08:03:19;6.20;99.90
29363;DHT22;16349;53.672;10.014;2023-02-18T08:05:48;6.20;99.90
29363;DHT22;16349;53.672;10.014;2023-02-18T08:08:16;6.20;99.90
29363;DHT22;16349;53.672;10.014;2023-02-18T08:10:45;6.20;99.90
29363;DHT22;16349;53.672;10.014;2023-02-18T08:13:12;6.20;99.90
29363;DHT22;16349;53.672;10.014;2023-02-18T08:15:41;6.30;99.90
29363;DHT22;16349;53.672;10.014;2023-02-18T08:18:14;6.30;99.90
29363;DHT22;16349;53.672;10.014;2023-02-18T08:20:41;6.30;99.90
29363;DHT22;16349;53.672;10.014;2023-02-18T08:23:09;6.30;99.90
29363;DHT22;16349;53.672;10.014;2023-02-18T08:25:36;6.30;99.90
29363;DHT22;16349;53.672;10.014;2023-02-18T08:28:03;6.40;99.90
29363;DHT22;16349;53.672;10.014;2023-02-18T08:30:30;6.40;99.90
29363;DHT22;16349;53.672;10.014;2023-02-18T08:32:58;6.40;99.90
29363;DHT22;16349;53.672;10.014;2023-02-18T08:35:25;6.40;99.90
29363;DHT22;16349;53.672;10.014;2023-02-18T08:37:52;6.40;99.90
29363;DHT22;16349;53.672;10.014;2023-02-18T08:40:19;6.40;99.90
29363;DHT22;16349;53.672;10.014;2023-02-18T08:42:46;6.40;99.90
29363;DHT22;16349;53.672;10.014;2023-02-18T08:45:13;6.40;99.90
29363;DHT22;16349;53.672;10.014;2023-02-18T08:47:40;6.50;99.90
29363;DHT22;16349;53.672;10.014;2023-02-18T08:50:08;6.40;99.90
29363;DHT22;16349;53.672;10.014;2023-02-18T08:52:35;6.40;99.90
29363;DHT22;16349;53.672;10.014;2023-02-18T08:55:20;6.50;99.90
29363;DHT22;16349;53.672;10.014;2023-02-18T08:57:48;6.50;99.90
29363;DHT22;16349;53.672;10.014;2023-02-18T09:00:16;6.40;99.90
29363;DHT22;16349;53.672;10.014;2023-02-18T09:02:43;6.40;99.90
29363;DHT22;16349;53.672;10.014;2023-02-18T09:05:13;6.40;99.90
29363;DHT22;16349;53.672;10.014;2023-02-18T09:07:40;6.40;99.90
29363;DHT22;16349;53.672;10.014;2023-02-18T09:10:08;6.40;99.90
29363;DHT22;16349;53.672;10.014;2023-02-18T09:12:35;6.40;99.90
29363;DHT22;16349;53.672;10.014;2023-02-18T09:15:03;6.40;99.90
29363;DHT22;16349;53.672;10.014;2023-02-18T09:17:30;6.40;99.90
29363;DHT22;16349;53.672;10.014;2023-02-18T09:19:57;6.40;99.90
29363;DHT22;16349;53.672;10.014;2023-02-18T09:22:26;6.40;99.90
29363;DHT22;16349;53.672;10.014;2023-02-18T09:24:52;6.50;99.90
29363;DHT22;16349;53.672;10.014;2023-02-18T09:27:20;6.50;99.90
29363;DHT22;16349;53.672;10.014;2023-02-18T09:29:48;6.40;99.90
29363;DHT22;16349;53.672;10.014;2023-02-18T09:32:16;6.40;99.90
29363;DHT22;16349;53.672;10.014;2023-02-18T09:34:42;6.40;99.90
29363;DHT22;16349;53.672;10.014;2023-02-18T09:37:33;6.40;99.90
29363;DHT22;16349;53.672;10.014;2023-02-18T09:40:00;6.40;99.90
29363;DHT22;16349;53.672;10.014;2023-02-18T09:42:29;6.40;99.90
29363;DHT22;16349;53.672;10.014;2023-02-18T09:45:00;6.40;99.90
29363;DHT22;16349;53.672;10.014;2023-02-18T09:47:31;6.40;99.90
29363;DHT22;16349;53.672;10.014;2023-02-18T09:50:05;6.40;99.90
29363;DHT22;16349;53.672;10.014;2023-02-18T09:52:35;6.50;99.90
29363;DHT22;16349;53.672;10.014;2023-02-18T09:55:16;6.50;99.90
29363;DHT22;16349;53.672;10.014;2023-02-18T09:57:45;6.50;99.90
29363;DHT22;16349;53.672;10.014;2023-02-18T10:00:19;6.50;99.90
29363;DHT22;16349;53.672;10.014;2023-02-18T10:02:53;6.50;99.90
29363;DHT22;16349;53.672;10.014;2023-02-18T10:05:21;6.50;99.90
29363;DHT22;16349;53.672;10.014;2023-02-18T10:07:53;6.60;99.90
29363;DHT22;16349;53.672;10.014;2023-02-18T10:10:29;6.50;99.90
29363;DHT22;16349;53.672;10.014;2023-02-18T10:12:58;6.50;99.90
29363;DHT22;16349;53.672;10.014;2023-02-18T10:15:28;6.50;99.90
29363;DHT22;16349;53.672;10.014;2023-02-18T10:17:57;6.50;99.90
29363;DHT22;16349;53.672;10.014;2023-02-18T10:20:26;6.50;99.90
29363;DHT22;16349;53.672;10.014;2023-02-18T10:22:58;6.50;99.90
29363;DHT22;16349;53.672;10.014;2023-02-18T10:25:26;6.60;99.90
29363;DHT22;16349;53.672;10.014;2023-02-18T10:27:55;6.60;99.90
29363;DHT22;16349;53.672;10.014;2023-02-18T10:30:28;6.60;99.90
29363;DHT22;16349;53.672;10.014;2023-02-18T10:33:00;6.60;99.90
29363;DHT22;16349;53.672;10.014;2023-02-18T10:35:39;6.60;99.90
29363;DHT22;16349;53.672;10.014;2023-02-18T10:38:18;6.60;99.90
29363;DHT22;16349;53.672;10.014;2023-02-18T10:40:54;6.50;99.90
29363;DHT22;16349;53.672;10.014;2023-02-18T10:43:30;6.60;99.90
29363;DHT22;16349;53.672;10.014;2023-02-18T10:46:08;6.70;99.90
29363;DHT22;16349;53.672;10.014;2023-02-18T10:48:48;6.70;99.90
29363;DHT22;16349;53.672;10.014;2023-02-18T10:51:20;6.70;99.90
29363;DHT22;16349;53.672;10.014;2023-02-18T10:53:51;6.70;99.90
29363;DHT22;16349;53.672;10.014;2023-02-18T10:56:32;6.70;99.90
29363;DHT22;16349;53.672;10.014;2023-02-18T10:59:03;6.80;99.90
29363;DHT22;16349;53.672;10.014;2023-02-18T11:01:32;6.80;99.90
29363;DHT22;16349;53.672;10.014;2023-02-18T11:04:11;6.80;99.90
29363;DHT22;16349;53.672;10.014;2023-02-18T11:06:40;6.90;99.90
29363;DHT22;16349;53.672;10.014;2023-02-18T11:09:27;6.90;99.90
29363;DHT22;16349;53.672;10.014;2023-02-18T11:12:01;6.90;99.90
29363;DHT22;16349;53.672;10.014;2023-02-18T11:14:40;6.90;99.90
29363;DHT22;16349;53.672;10.014;2023-02-18T11:17:14;6.90;99.90
29363;DHT22;16349;53.672;10.014;2023-02-18T11:19:41;6.90;99.90
29363;DHT22;16349;53.672;10.014;2023-02-18T11:22:14;6.90;99.90
29363;DHT22;16349;53.672;10.014;2023-02-18T11:25:18;6.90;99.90
29363;DHT22;16349;53.672;10.014;2023-02-18T11:27:48;7.00;99.90
29363;DHT22;16349;53.672;10.014;2023-02-18T11:30:19;7.00;99.90
29363;DHT22;16349;53.672;10.014;2023-02-18T11:32:48;7.00;99.90
29363;DHT22;16349;53.672;10.014;2023-02-18T11:35:18;7.10;99.90
29363;DHT22;16349;53.672;10.014;2023-02-18T11:37:46;7.10;99.90
29363;DHT22;16349;53.672;10.014;2023-02-18T11:40:21;7.10;99.90
29363;DHT22;16349;53.672;10.014;2023-02-18T11:42:49;7.10;99.90
29363;DHT22;16349;53.672;10.014;2023-02-18T11:45:27;7.20;99.90
29363;DHT22;16349;53.672;10.014;2023-02-18T11:47:58;7.20;99.90
29363;DHT22;16349;53.672;10.014;2023-02-18T11:50:30;7.30;99.90
29363;DHT22;16349;53.672;10.014;2023-02-18T11:52:58;7.30;99.90
29363;DHT22;16349;53.672;10.014;2023-02-18T11:55:28;7.30;99.90
29363;DHT22;16349;53.672;10.014;2023-02-18T11:58:15;7.40;99.90
29363;DHT22;16349;53.672;10.014;2023-02-18T12:00:44;7.40;99.90
29363;DHT22;16349;53.672;10.014;2023-02-18T12:03:17;7.40;99.90
29363;DHT22;16349;53.672;10.014;2023-02-18T12:05:49;7.50;99.90
29363;DHT22;16349;53.672;10.014;2023-02-18T12:08:19;7.50;99.90
29363;DHT22;16349;53.672;10.014;2023-02-18T12:10:50;7.50;99.90
29363;DHT22;16349;53.672;10.014;2023-02-18T12:13:23;7.60;99.90
29363;DHT22;16349;53.672;10.014;2023-02-18T12:15:59;7.80;99.90
29363;DHT22;16349;53.672;10.014;2023-02-18T12:18:48;8.00;99.90
29363;DHT22;16349;53.672;10.014;2023-02-18T12:21:32;8.20;99.90
29363;DHT22;16349;53.672;10.014;2023-02-18T12:24:12;8.30;99.90
29363;DHT22;16349;53.672;10.014;2023-02-18T12:26:51;8.60;99.90
29363;DHT22;16349;53.672;10.014;2023-02-18T12:29:34;8.70;99.90
29363;DHT22;16349;53.672;10.014;2023-02-18T12:32:22;8.80;99.90
29363;DHT22;16349;53.672;10.014;2023-02-18T12:35:00;9.00;99.90
29363;DHT22;16349;53.672;10.014;2023-02-18T12:37:52;8.90;99.90
29363;DHT22;16349;53.672;10.014;2023-02-18T12:40:37;9.00;99.90
29363;DHT22;16349;53.672;10.014;2023-02-18T12:43:14;9.00;99.90
29363;DHT22;16349;53.672;10.014;2023-02-18T12:45:56;9.10;99.90
29363;DHT22;16349;53.672;10.014;2023-02-18T12:48:41;9.10;99.90
29363;DHT22;16349;53.672;10.014;2023-02-18T12:51:21;9.10;99.90
29363;DHT22;16349;53.672;10.014;2023-02-18T12:54:03;9.10;99.90
29363;DHT22;16349;53.672;10.014;2023-02-18T12:56:46;9.10;99.90
29363;DHT22;16349;53.672;10.014;2023-02-18T12:59:39;9.10;99.90
29363;DHT22;16349;53.672;10.014;2023-02-18T13:02:23;9.10;99.90
29363;DHT22;16349;53.672;10.014;2023-02-18T13:04:58;9.10;99.90
29363;DHT22;16349;53.672;10.014;2023-02-18T13:07:46;9.10;99.90
29363;DHT22;16349;53.672;10.014;2023-02-18T13:10:46;9.10;99.90
29363;DHT22;16349;53.672;10.014;2023-02-18T13:13:19;9.00;99.90
29363;DHT22;16349;53.672;10.014;2023-02-18T13:15:51;9.10;99.90
29363;DHT22;16349;53.672;10.014;2023-02-18T13:18:22;9.00;99.90
29363;DHT22;16349;53.672;10.014;2023-02-18T13:20:53;9.00;99.90
29363;DHT22;16349;53.672;10.014;2023-02-18T13:23:22;9.00;99.90
29363;DHT22;16349;53.672;10.014;2023-02-18T13:25:54;9.00;99.90
29363;DHT22;16349;53.672;10.014;2023-02-18T13:28:25;8.90;99.90
29363;DHT22;16349;53.672;10.014;2023-02-18T13:31:05;8.90;99.90
29363;DHT22;16349;53.672;10.014;2023-02-18T13:33:42;8.80;99.90
29363;DHT22;16349;53.672;10.014;2023-02-18T13:36:21;8.70;99.90
29363;DHT22;16349;53.672;10.014;2023-02-18T13:38:57;8.60;99.90
29363;DHT22;16349;53.672;10.014;2023-02-18T13:41:27;8.40;99.90
29363;DHT22;16349;53.672;10.014;2023-02-18T13:43:54;8.30;99.90
29363;DHT22;16349;53.672;10.014;2023-02-18T13:46:23;8.10;99.90
29363;DHT22;16349;53.672;10.014;2023-02-18T13:48:52;8.00;99.90
29363;DHT22;16349;53.672;10.014;2023-02-18T13:51:28;7.80;99.90
29363;DHT22;16349;53.672;10.014;2023-02-18T13:54:02;7.80;99.90
29363;DHT22;16349;53.672;10.014;2023-02-18T13:56:31;7.60;99.90
29363;DHT22;16349;53.672;10.014;2023-02-18T13:59:01;7.50;99.90
29363;DHT22;16349;53.672;10.014;2023-02-18T14:01:39;7.40;99.90
29363;DHT22;16349;53.672;10.014;2023-02-18T14:07:37;7.20;99.90
29363;DHT22;16349;53.672;10.014;2023-02-18T14:10:31;7.00;99.90
29363;DHT22;16349;53.672;10.014;2023-02-18T14:13:36;6.80;99.90
29363;DHT22;16349;53.672;10.014;2023-02-18T14:16:05;6.70;99.90
29363;DHT22;16349;53.672;10.014;2023-02-18T14:19:00;6.70;99.90
29363;DHT22;16349;53.672;10.014;2023-02-18T14:21:36;6.60;99.90
29363;DHT22;16349;53.672;10.014;2023-02-18T14:24:05;6.50;99.90
29363;DHT22;16349;53.672;10.014;2023-02-18T14:26:36;6.40;99.90
29363;DHT22;16349;53.672;10.014;2023-02-18T14:29:09;6.40;99.90
29363;DHT22;16349;53.672;10.014;2023-02-18T14:31:45;6.30;99.90
29363;DHT22;16349;53.672;10.014;2023-02-18T14:37:18;6.20;99.90
29363;DHT22;16349;53.672;10.014;2023-02-18T14:40:23;6.00;99.90
29363;DHT22;16349;53.672;10.014;2023-02-18T14:42:58;5.90;99.90
29363;DHT22;16349;53.672;10.014;2023-02-18T14:45:35;5.90;99.90
29363;DHT22;16349;53.672;10.014;2023-02-18T14:48:59;5.90;99.90
29363;DHT22;16349;53.672;10.014;2023-02-18T14:51:33;5.90;99.90
29363;DHT22;16349;53.672;10.014;2023-02-18T14:54:05;5.90;99.90
29363;DHT22;16349;53.672;10.014;2023-02-18T14:56:37;5.90;99.90
29363;DHT22;16349;53.672;10.014;2023-02-18T14:59:05;5.90;99.90
29363;DHT22;16349;53.672;10.014;2023-02-18T15:01:34;6.00;99.90
29363;DHT22;16349;53.672;10.014;2023-02-18T15:04:02;6.10;99.90
29363;DHT22;16349;53.672;10.014;2023-02-18T15:06:33;6.20;99.90
29363;DHT22;16349;53.672;10.014;2023-02-18T15:09:11;6.50;99.90
29363;DHT22;16349;53.672;10.014;2023-02-18T15:11:41;6.70;99.90
29363;DHT22;16349;53.672;10.014;2023-02-18T15:14:13;6.70;99.90
29363;DHT22;16349;53.672;10.014;2023-02-18T15:17:05;6.50;99.90
29363;DHT22;16349;53.672;10.014;2023-02-18T15:19:36;6.40;99.90
29363;DHT22;16349;53.672;10.014;2023-02-18T15:22:14;6.40;99.90
29363;DHT22;16349;53.672;10.014;2023-02-18T15:24:42;6.40;99.90
29363;DHT22;16349;53.672;10.014;2023-02-18T15:27:11;6.40;99.90
29363;DHT22;16349;53.672;10.014;2023-02-18T15:29:40;6.30;99.90
29363;DHT22;16349;53.672;10.014;2023-02-18T15:32:15;6.20;99.90
29363;DHT22;16349;53.672;10.014;2023-02-18T15:34:43;6.10;99.90
29363;DHT22;16349;53.672;10.014;2023-02-18T15:37:13;6.10;99.90
29363;DHT22;16349;53.672;10.014;2023-02-18T15:39:41;6.00;99.90
29363;DHT22;16349;53.672;10.014;2023-02-18T15:42:15;5.90;99.90
29363;DHT22;16349;53.672;10.014;2023-02-18T15:44:45;5.90;99.90
29363;DHT22;16349;53.672;10.014;2023-02-18T15:47:13;5.90;99.90
29363;DHT22;16349;53.672;10.014;2023-02-18T15:50:06;5.90;99.90
29363;DHT22;16349;53.672;10.014;2023-02-18T15:52:37;5.90;99.90
29363;DHT22;16349;53.672;10.014;2023-02-18T15:55:10;5.90;99.90
29363;DHT22;16349;53.672;10.014;2023-02-18T15:57:38;5.90;99.90
29363;DHT22;16349;53.672;10.014;2023-02-18T16:00:13;5.90;99.90
29363;DHT22;16349;53.672;10.014;2023-02-18T16:02:55;5.80;99.90
29363;DHT22;16349;53.672;10.014;2023-02-18T16:05:27;5.80;99.90
29363;DHT22;16349;53.672;10.014;2023-02-18T16:07:59;5.80;99.90
29363;DHT22;16349;53.672;10.014;2023-02-18T16:10:41;5.80;99.90
29363;DHT22;16349;53.672;10.014;2023-02-18T16:13:12;5.80;99.90